Time;durP1;ratioP1;P1;durP2;ratioP2;P2;SDS_P1;SDS_P2;PMS_P1;PMS_P2;Temp;Humidity;BMP_temperature;BMP_pressure;BME280_temperature;BME280_humidity;BME280_pressure;Samples;Min_cycle;Max_cycle;Signal;HPM_P1;HPM_P2
2021/04/28 00:00:32;;;;;;;19.08;13.68;;;23.80;76.00;;;;;;5003004;28;20029;-73
2021/04/28 00:03:01;;;;;;;16.08;12.95;;;24.90;72.40;;;;;;5001866;28;20026;-75
2021/04/28 00:05:29;;;;;;;15.07;12.05;;;25.20;71.60;;;;;;4998260;28;20441;-75
2021/04/28 00:07:57;;;;;;;11.10;10.00;;;25.40;70.50;;;;;;5005111;28;20274;-72
2021/04/28 00:10:28;;;;;;;13.68;10.93;;;25.30;70.20;;;;;;5006079;28;20060;-72
2021/04/28 00:12:56;;;;;;;14.25;11.35;;;25.20;71.90;;;;;;5002551;28;20019;-75
2021/04/28 00:15:31;;;;;;;15.00;12.30;;;25.10;69.70;;;;;;5003155;28;20030;-76
2021/04/28 00:17:59;;;;;;;17.33;12.20;;;24.90;72.10;;;;;;5009187;28;20117;-76
2021/04/28 00:20:27;;;;;;;12.10;8.57;;;24.70;71.20;;;;;;5010604;28;20030;-72
2021/04/28 00:22:55;;;;;;;12.45;11.25;;;24.80;71.50;;;;;;5003454;28;20109;-76
2021/04/28 00:25:24;;;;;;;12.10;10.10;;;24.80;72.10;;;;;;5011651;28;20099;-75
2021/04/28 00:27:51;;;;;;;13.15;10.57;;;24.30;71.30;;;;;;5007344;28;20042;-75
2021/04/28 00:30:20;;;;;;;12.48;9.50;;;23.90;72.90;;;;;;5007530;28;20026;-74
2021/04/28 00:32:49;;;;;;;11.38;8.10;;;23.00;74.90;;;;;;5002549;28;20361;-77
2021/04/28 00:35:18;;;;;;;8.77;7.65;;;22.60;76.50;;;;;;5002533;28;20038;-77
2021/04/28 00:37:46;;;;;;;13.63;11.07;;;22.40;78.20;;;;;;4998968;28;20037;-74
2021/04/28 00:40:37;;;;;;;13.50;11.40;;;22.30;79.20;;;;;;5006452;28;20082;-75
2021/04/28 00:43:04;;;;;;;13.63;8.80;;;22.40;80.00;;;;;;5003510;28;20116;-75
2021/04/28 00:45:34;;;;;;;9.05;7.45;;;22.60;77.30;;;;;;5005268;28;20563;-76
2021/04/28 00:48:05;;;;;;;12.07;10.05;;;22.90;76.60;;;;;;5007415;28;20465;-72
2021/04/28 00:50:36;;;;;;;13.45;11.80;;;23.00;77.00;;;;;;5001859;28;20551;-71
2021/04/28 00:53:05;;;;;;;12.25;11.00;;;23.10;76.70;;;;;;5003466;28;20422;-72
2021/04/28 00:55:33;;;;;;;12.23;10.05;;;23.10;77.90;;;;;;5008045;28;20014;-73
2021/04/28 00:58:01;;;;;;;14.00;11.82;;;23.20;78.20;;;;;;5004741;28;20026;-73
2021/04/28 01:00:29;;;;;;;11.00;10.00;;;23.30;76.20;;;;;;5008614;28;20022;-71
2021/04/28 01:02:56;;;;;;;14.70;9.32;;;24.10;76.70;;;;;;5001410;28;20023;-73
2021/04/28 01:05:24;;;;;;;11.43;9.52;;;25.30;73.00;;;;;;5004714;28;20072;-72
2021/04/28 01:07:52;;;;;;;10.32;9.20;;;25.90;68.90;;;;;;4999399;28;20080;-73
2021/04/28 01:10:23;;;;;;;9.20;8.15;;;26.80;66.10;;;;;;5000490;28;20045;-72
2021/04/28 01:12:51;;;;;;;12.35;9.20;;;26.20;67.30;;;;;;5003519;28;20128;-74
2021/04/28 01:15:22;;;;;;;15.55;12.18;;;25.70;66.70;;;;;;5000479;28;20157;-73
2021/04/28 01:17:50;;;;;;;13.35;10.10;;;25.10;67.50;;;;;;4999302;28;20042;-73
2021/04/28 01:20:19;;;;;;;14.43;11.15;;;24.50;69.10;;;;;;5002930;28;20050;-75
2021/04/28 01:22:48;;;;;;;12.32;9.82;;;24.70;70.10;;;;;;5002283;28;20050;-75
2021/04/28 01:25:18;;;;;;;10.23;9.20;;;25.20;68.80;;;;;;5001519;28;20393;-73
2021/04/28 01:28:20;;;;;;;11.80;9.18;;;25.50;69.50;;;;;;4999490;28;20032;-74
2021/04/28 01:30:57;;;;;;;10.20;7.97;;;25.70;69.00;;;;;;5000822;28;20045;-72
2021/04/28 01:33:36;;;;;;;8.70;7.72;;;25.30;65.50;;;;;;5001269;28;20121;-72
2021/04/28 01:36:08;;;;;;;12.38;8.68;;;25.00;66.80;;;;;;4997911;28;20037;-74
2021/04/28 01:38:39;;;;;;;9.85;7.15;;;24.90;68.70;;;;;;5016961;28;20117;-72
2021/04/28 01:41:07;;;;;;;10.13;8.15;;;25.70;67.40;;;;;;5004038;28;20046;-71
2021/04/28 01:43:36;;;;;;;9.23;7.03;;;26.60;67.30;;;;;;5011205;28;20018;-73
2021/04/28 01:46:04;;;;;;;7.50;5.82;;;26.90;63.10;;;;;;5010505;28;20476;-72
2021/04/28 01:48:32;;;;;;;6.40;5.80;;;26.20;62.00;;;;;;5005562;28;20045;-73
2021/04/28 01:51:01;;;;;;;6.22;5.60;;;25.80;63.20;;;;;;5008610;28;20029;-74
2021/04/28 01:53:29;;;;;;;11.07;7.43;;;25.80;67.50;;;;;;5008178;28;20038;-71
2021/04/28 01:55:58;;;;;;;9.68;6.68;;;26.00;65.90;;;;;;5007185;28;20026;-73
2021/04/28 01:58:27;;;;;;;11.52;7.47;;;25.10;65.80;;;;;;5004300;28;20052;-75
2021/04/28 02:00:55;;;;;;;10.23;6.80;;;24.80;67.10;;;;;;5004229;28;20477;-75
2021/04/28 02:03:26;;;;;;;8.07;6.00;;;24.50;67.50;;;;;;5003334;28;20037;-75
2021/04/28 02:05:54;;;;;;;7.03;6.30;;;24.20;65.80;;;;;;5003024;28;20026;-73
2021/04/28 02:08:22;;;;;;;11.45;7.38;;;23.70;67.50;;;;;;5004692;28;20091;-75
2021/04/28 02:10:49;;;;;;;7.57;5.85;;;23.20;69.70;;;;;;5006048;28;20038;-74
2021/04/28 02:13:22;;;;;;;7.63;6.40;;;23.20;70.80;;;;;;5002565;28;20045;-73
2021/04/28 02:15:51;;;;;;;7.75;6.53;;;23.10;70.80;;;;;;5004512;28;20088;-74
2021/04/28 02:18:19;;;;;;;8.55;6.47;;;22.90;70.20;;;;;;5001893;28;20030;-74
2021/04/28 02:20:47;;;;;;;6.40;5.57;;;23.00;71.30;;;;;;5002901;28;20407;-73
2021/04/28 02:23:16;;;;;;;7.85;5.95;;;23.00;71.80;;;;;;4998648;28;20042;-74
2021/04/28 02:25:44;;;;;;;8.23;6.38;;;23.30;72.70;;;;;;5002127;28;20034;-73
2021/04/28 02:28:11;;;;;;;9.60;6.15;;;23.70;70.30;;;;;;5004553;28;20445;-74
2021/04/28 02:30:39;;;;;;;8.60;5.80;;;24.10;68.00;;;;;;5007190;28;20029;-72
2021/04/28 02:33:06;;;;;;;5.03;4.53;;;24.60;65.60;;;;;;5004633;28;20057;-72
2021/04/28 02:35:34;;;;;;;6.38;4.40;;;24.90;64.50;;;;;;5006456;28;20106;-74
2021/04/28 02:38:30;;;;;;;7.13;4.53;;;24.90;62.90;;;;;;5007200;28;20030;-74
2021/04/28 02:41:00;;;;;;;6.20;4.80;;;24.60;63.00;;;;;;5002138;28;20045;-74
2021/04/28 02:43:30;;;;;;;7.00;4.75;;;23.90;65.90;;;;;;5001841;28;20056;-72
2021/04/28 02:45:59;;;;;;;6.13;4.72;;;23.60;67.20;;;;;;5003579;28;20057;-74
2021/04/28 02:48:27;;;;;;;6.20;5.53;;;23.50;65.90;;;;;;5005423;28;20508;-73
2021/04/28 02:50:56;;;;;;;7.60;4.55;;;23.80;68.80;;;;;;5002683;28;22050;-74
2021/04/28 02:53:26;;;;;;;6.68;4.50;;;24.80;63.90;;;;;;5006023;28;20056;-72
2021/04/28 02:55:59;;;;;;;5.20;4.60;;;25.60;63.20;;;;;;5004267;28;20080;-72
2021/04/28 02:58:28;;;;;;;6.30;4.55;;;26.50;60.80;;;;;;5004660;28;20034;-70
2021/04/28 03:00:58;;;;;;;5.32;4.10;;;27.40;60.00;;;;;;5007132;28;20030;-76
2021/04/28 03:03:25;;;;;;;5.22;4.20;;;27.40;58.00;;;;;;5003726;28;20029;-72
2021/04/28 03:05:53;;;;;;;5.53;4.43;;;27.20;56.80;;;;;;5002543;28;20040;-75
2021/04/28 03:08:21;;;;;;;5.47;4.88;;;26.40;61.70;;;;;;5002711;28;22064;-76
2021/04/28 03:10:50;;;;;;;4.70;4.30;;;26.00;63.40;;;;;;5002324;28;20037;-75
2021/04/28 03:13:18;;;;;;;4.30;3.90;;;25.90;60.20;;;;;;5003550;28;20045;-75
2021/04/28 03:15:48;;;;;;;7.88;5.20;;;26.20;58.60;;;;;;5001719;28;20034;-73
2021/04/28 03:18:17;;;;;;;7.28;4.35;;;27.10;57.70;;;;;;5003541;28;20053;-73
2021/04/28 03:20:48;;;;;;;7.05;5.03;;;27.20;55.80;;;;;;5005152;28;20038;-76
2021/04/28 03:23:16;;;;;;;4.10;3.70;;;26.90;57.40;;;;;;5006101;28;20480;-76
2021/04/28 03:25:44;;;;;;;6.63;4.03;;;26.80;56.50;;;;;;5005897;28;20048;-74
2021/04/28 03:28:12;;;;;;;6.38;5.05;;;26.90;56.90;;;;;;5003148;28;20388;-75
2021/04/28 03:30:39;;;;;;;5.00;3.92;;;26.50;57.70;;;;;;5004207;28;20026;-74
2021/04/28 03:33:06;;;;;;;8.18;5.22;;;26.40;58.80;;;;;;5002005;28;20138;-72
2021/04/28 03:35:34;;;;;;;5.80;4.00;;;26.40;58.30;;;;;;5002947;28;20408;-75
2021/04/28 03:38:02;;;;;;;6.80;3.95;;;26.40;58.90;;;;;;5007393;28;20087;-71
2021/04/28 03:40:30;;;;;;;5.47;4.45;;;25.50;59.20;;;;;;5019027;28;20026;-75
2021/04/28 03:42:57;;;;;;;5.07;3.88;;;24.70;62.30;;;;;;5001006;28;20087;-74
2021/04/28 03:45:24;;;;;;;6.20;4.20;;;24.20;62.20;;;;;;5005676;28;20026;-75
2021/04/28 03:47:52;;;;;;;6.70;4.30;;;24.30;62.90;;;;;;5002453;28;20030;-73
2021/04/28 03:50:19;;;;;;;6.32;3.97;;;24.70;62.70;;;;;;5002154;28;20030;-73
2021/04/28 03:52:47;;;;;;;6.00;4.55;;;25.00;60.80;;;;;;5002538;28;20030;-73
2021/04/28 03:55:14;;;;;;;6.60;4.93;;;25.40;59.40;;;;;;5005191;28;20026;-74
2021/04/28 03:57:43;;;;;;;6.30;3.90;;;25.60;60.50;;;;;;5004844;28;20041;-74
2021/04/28 04:00:11;;;;;;;4.40;2.83;;;26.10;60.40;;;;;;5008856;28;20026;-74
2021/04/28 04:02:39;;;;;;;5.72;3.30;;;26.20;54.40;;;;;;5005800;28;20029;-73
2021/04/28 04:05:07;;;;;;;3.72;3.40;;;26.20;56.00;;;;;;5003531;28;20068;-75
2021/04/28 04:07:34;;;;;;;4.60;3.25;;;26.40;54.50;;;;;;5002116;28;20037;-74
2021/04/28 04:10:02;;;;;;;4.47;3.33;;;26.20;53.90;;;;;;5003608;28;20018;-73
2021/04/28 04:12:29;;;;;;;6.72;3.55;;;26.10;55.40;;;;;;5004871;28;20037;-78
2021/04/28 04:14:57;;;;;;;3.97;2.83;;;25.70;55.80;;;;;;5006641;28;20045;-75
2021/04/28 04:17:24;;;;;;;3.13;2.70;;;25.40;54.90;;;;;;4985761;28;20038;-72
2021/04/28 04:19:52;;;;;;;8.00;4.05;;;24.90;55.70;;;;;;4984796;28;20030;-73
2021/04/28 04:22:20;;;;;;;7.55;3.78;;;24.60;57.10;;;;;;4984715;28;20068;-73
2021/04/28 04:24:47;;;;;;;4.88;3.50;;;24.40;57.90;;;;;;5002173;28;20038;-71
2021/04/28 04:27:15;;;;;;;5.18;3.33;;;24.40;58.20;;;;;;4987863;28;20381;-76
2021/04/28 04:29:42;;;;;;;4.32;3.42;;;24.30;57.90;;;;;;4982651;28;20705;-72
2021/04/28 04:32:10;;;;;;;5.65;2.72;;;24.20;57.90;;;;;;4985407;28;20436;-76
2021/04/28 04:34:37;;;;;;;4.30;3.80;;;24.20;58.50;;;;;;4990564;28;20042;-74
2021/04/28 04:37:05;;;;;;;5.28;3.13;;;23.90;59.90;;;;;;4983684;28;20085;-74
2021/04/28 04:39:32;;;;;;;5.57;3.70;;;23.90;59.40;;;;;;4982409;28;20061;-74
2021/04/28 04:42:00;;;;;;;8.18;3.90;;;23.70;60.10;;;;;;4980512;28;20034;-73
2021/04/28 04:44:28;;;;;;;4.80;3.30;;;23.60;60.30;;;;;;4984963;28;20041;-73
2021/04/28 04:46:55;;;;;;;5.20;3.28;;;23.40;60.90;;;;;;4982394;28;20064;-75
2021/04/28 04:49:23;;;;;;;5.22;3.60;;;23.30;62.50;;;;;;4984238;28;20480;-75
2021/04/28 04:51:50;;;;;;;5.25;3.95;;;23.30;61.30;;;;;;4987381;28;20034;-73
2021/04/28 04:54:17;;;;;;;3.80;3.45;;;23.40;61.50;;;;;;4987455;28;20477;-72
2021/04/28 04:56:45;;;;;;;6.75;3.67;;;23.30;62.40;;;;;;4989166;28;20061;-72
2021/04/28 04:59:12;;;;;;;5.25;3.53;;;23.00;62.90;;;;;;4986814;28;20022;-74
2021/04/28 05:01:40;;;;;;;5.55;4.10;;;22.80;63.40;;;;;;4979605;28;20109;-73
2021/04/28 05:04:08;;;;;;;5.90;4.47;;;22.80;64.60;;;;;;4962831;28;20512;-74
2021/04/28 05:06:36;;;;;;;3.95;3.63;;;22.90;64.00;;;;;;4980249;28;20068;-72
2021/04/28 05:09:04;;;;;;;4.53;4.13;;;22.90;63.70;;;;;;4980834;28;20033;-73
2021/04/28 05:11:32;;;;;;;3.83;3.35;;;23.00;64.60;;;;;;4981674;28;20030;-72
2021/04/28 05:13:59;;;;;;;4.47;4.07;;;22.90;64.90;;;;;;4984207;28;20034;-71
2021/04/28 05:16:26;;;;;;;6.03;4.22;;;22.80;64.30;;;;;;5000812;28;20046;-71
2021/04/28 05:18:54;;;;;;;7.05;4.00;;;22.70;65.20;;;;;;5003959;28;20508;-70
2021/04/28 05:21:22;;;;;;;8.25;4.20;;;22.70;64.90;;;;;;5006776;28;20040;-72
2021/04/28 05:23:50;;;;;;;9.15;4.38;;;22.70;64.60;;;;;;5006187;28;20042;-70
2021/04/28 05:26:17;;;;;;;6.05;4.05;;;22.70;64.80;;;;;;5006771;28;20037;-71
2021/04/28 05:28:45;;;;;;;4.60;4.05;;;22.70;64.80;;;;;;5009623;28;20405;-71
2021/04/28 05:31:12;;;;;;;6.43;4.50;;;22.60;64.60;;;;;;5005431;28;20029;-72
2021/04/28 05:33:40;;;;;;;4.38;3.58;;;22.50;64.90;;;;;;5005463;28;20073;-73
2021/04/28 05:36:08;;;;;;;5.88;4.35;;;22.50;65.60;;;;;;5005454;28;20034;-75
2021/04/28 05:38:37;;;;;;;4.80;4.40;;;22.50;65.90;;;;;;5006433;28;20037;-72
2021/04/28 05:41:05;;;;;;;6.32;4.00;;;22.40;67.50;;;;;;5003729;28;20045;-74
2021/04/28 05:43:33;;;;;;;5.70;4.40;;;22.40;66.70;;;;;;5005293;28;20045;-72
2021/04/28 05:46:01;;;;;;;6.85;4.72;;;22.40;67.20;;;;;;5011337;28;20030;-76
2021/04/28 05:48:29;;;;;;;5.70;4.43;;;22.50;67.00;;;;;;5010133;28;20757;-76
2021/04/28 05:50:56;;;;;;;5.47;4.20;;;22.60;67.50;;;;;;4996565;28;20026;-76
2021/04/28 05:53:25;;;;;;;4.82;4.28;;;22.70;67.50;;;;;;5005279;28;20052;-74
2021/04/28 05:55:53;;;;;;;6.90;4.68;;;22.70;66.80;;;;;;5006185;28;20056;-75
2021/04/28 05:58:20;;;;;;;7.85;4.75;;;22.70;68.00;;;;;;5005088;28;20029;-74
2021/04/28 06:00:48;;;;;;;4.50;4.10;;;22.80;67.80;;;;;;5006566;28;20404;-72
2021/04/28 06:03:15;;;;;;;4.15;3.75;;;22.80;68.70;;;;;;5006040;28;20025;-71
2021/04/28 06:05:42;;;;;;;6.78;3.35;;;22.60;70.90;;;;;;5007687;28;20029;-75
2021/04/28 06:08:12;;;;;;;6.93;4.45;;;22.20;72.30;;;;;;5007077;28;20042;-73
2021/04/28 06:10:40;;;;;;;8.75;4.93;;;22.50;71.40;;;;;;5001770;28;20029;-76
2021/04/28 06:13:08;;;;;;;5.63;4.35;;;22.60;70.80;;;;;;5007096;28;20041;-77
2021/04/28 06:15:35;;;;;;;6.50;4.07;;;22.80;70.70;;;;;;5007146;28;20141;-75
2021/04/28 06:18:05;;;;;;;10.88;4.63;;;22.90;70.20;;;;;;5006103;28;20049;-73
2021/04/28 06:20:34;;;;;;;8.60;3.78;;;23.00;70.50;;;;;;5007469;28;20030;-73
2021/04/28 06:23:03;;;;;;;7.10;3.58;;;22.90;70.30;;;;;;5005029;28;20014;-75
2021/04/28 06:25:31;;;;;;;5.93;3.50;;;22.90;70.40;;;;;;5004527;28;20089;-77
2021/04/28 06:27:59;;;;;;;7.25;3.60;;;22.80;70.70;;;;;;5004504;28;20455;-72
2021/04/28 06:30:26;;;;;;;4.15;3.10;;;22.80;70.70;;;;;;5022771;28;20038;-73
2021/04/28 06:32:54;;;;;;;6.03;3.42;;;22.50;71.20;;;;;;5009086;28;20038;-75
2021/04/28 06:35:21;;;;;;;6.82;3.97;;;22.30;72.00;;;;;;5004285;28;20840;-72
2021/04/28 06:37:49;;;;;;;6.20;2.78;;;22.10;72.60;;;;;;5021580;28;20041;-75
2021/04/28 06:40:16;;;;;;;8.55;3.80;;;22.10;73.10;;;;;;5007952;28;20088;-76
2021/04/28 06:42:43;;;;;;;5.13;3.17;;;22.10;72.80;;;;;;5003067;28;20030;-76
2021/04/28 06:45:12;;;;;;;5.22;3.72;;;22.20;72.90;;;;;;5005585;28;20034;-71
2021/04/28 06:47:39;;;;;;;8.13;3.15;;;22.40;72.30;;;;;;5006639;28;20036;-77
2021/04/28 06:50:09;;;;;;;3.70;2.95;;;22.10;72.80;;;;;;5006236;28;20033;-76
2021/04/28 06:52:37;;;;;;;8.20;4.22;;;22.10;73.00;;;;;;5006785;28;20026;-73
2021/04/28 06:55:05;;;;;;;5.35;2.67;;;22.10;72.90;;;;;;5005214;28;20030;-76
2021/04/28 06:57:33;;;;;;;4.90;3.13;;;22.10;72.90;;;;;;5007114;28;20024;-77
2021/04/28 07:00:01;;;;;;;5.30;3.75;;;22.00;73.10;;;;;;5006301;28;20070;-75
2021/04/28 07:02:28;;;;;;;6.78;4.20;;;22.00;73.50;;;;;;5006477;28;20726;-76
2021/04/28 07:04:55;;;;;;;6.85;3.53;;;21.90;73.70;;;;;;5006742;28;20030;-73
2021/04/28 07:07:23;;;;;;;8.43;3.55;;;21.90;74.00;;;;;;5004447;28;20034;-73
2021/04/28 07:09:50;;;;;;;7.45;3.25;;;21.80;74.50;;;;;;5008559;28;20029;-72
2021/04/28 07:12:18;;;;;;;10.35;5.00;;;21.60;75.20;;;;;;5005431;28;21177;-71
2021/04/28 07:14:45;;;;;;;6.03;3.47;;;21.60;75.60;;;;;;5003098;28;20046;-72
2021/04/28 07:17:13;;;;;;;6.72;3.05;;;21.50;75.70;;;;;;5006850;28;20393;-78
2021/04/28 07:19:40;;;;;;;4.30;3.83;;;21.40;75.80;;;;;;5004059;28;20113;-73
2021/04/28 07:22:08;;;;;;;5.93;3.63;;;21.20;76.90;;;;;;5004192;28;20127;-71
2021/04/28 07:24:35;;;;;;;7.57;3.78;;;21.20;77.00;;;;;;5004524;28;20048;-70
2021/04/28 07:27:02;;;;;;;7.15;3.63;;;21.20;77.10;;;;;;5004233;28;20033;-72
2021/04/28 07:29:30;;;;;;;7.00;3.40;;;21.30;76.90;;;;;;5003162;28;20033;-74
2021/04/28 07:32:01;;;;;;;12.27;4.50;;;21.30;77.00;;;;;;5004780;28;20036;-75
2021/04/28 07:34:30;;;;;;;7.03;4.28;;;21.10;77.90;;;;;;5006709;28;20124;-75
2021/04/28 07:36:57;;;;;;;6.55;4.10;;;21.00;78.00;;;;;;5003254;28;20030;-75
2021/04/28 07:39:24;;;;;;;4.20;3.35;;;20.80;78.70;;;;;;5002735;28;20084;-75
2021/04/28 07:41:52;;;;;;;4.07;3.78;;;20.70;79.50;;;;;;5005870;28;20087;-86
2021/04/28 07:44:19;;;;;;;6.57;3.20;;;20.70;79.90;;;;;;5007912;28;20030;-81
2021/04/28 07:46:47;;;;;;;8.63;3.92;;;20.50;80.50;;;;;;5005624;28;20169;-82
2021/04/28 07:49:14;;;;;;;9.57;4.78;;;20.30;81.40;;;;;;5005866;28;20091;-83
2021/04/28 07:51:42;;;;;;;8.73;5.05;;;20.20;82.50;;;;;;5005891;28;20435;-80
2021/04/28 07:54:09;;;;;;;5.78;4.63;;;20.00;83.20;;;;;;5005330;28;20036;-82
2021/04/28 07:56:37;;;;;;;6.90;4.35;;;19.90;83.90;;;;;;5001438;28;20449;-81
2021/04/28 07:59:06;;;;;;;9.85;5.55;;;19.80;84.50;;;;;;5003897;28;20106;-86
2021/04/28 08:01:33;;;;;;;5.38;4.25;;;19.70;84.90;;;;;;5005090;28;20499;-83
2021/04/28 08:04:01;;;;;;;6.13;4.47;;;19.60;85.50;;;;;;5003265;28;20034;-81
2021/04/28 08:06:28;;;;;;;6.03;5.28;;;19.60;85.80;;;;;;5008334;28;20033;-82
2021/04/28 08:08:56;;;;;;;6.82;5.22;;;19.50;86.20;;;;;;5005791;28;20049;-82
2021/04/28 08:11:25;;;;;;;8.18;5.03;;;19.40;86.50;;;;;;5008256;28;20033;-88
2021/04/28 08:13:53;;;;;;;6.40;4.88;;;19.40;86.80;;;;;;5011384;28;20038;-87
2021/04/28 08:16:22;;;;;;;6.75;4.43;;;19.30;86.90;;;;;;5003848;28;20057;-87
2021/04/28 08:18:50;;;;;;;6.85;5.00;;;19.30;87.20;;;;;;5008504;28;20068;-86
2021/04/28 08:21:18;;;;;;;6.32;5.53;;;19.20;87.60;;;;;;5007567;28;20056;-83
2021/04/28 08:23:46;;;;;;;5.95;5.35;;;19.20;87.80;;;;;;5005588;28;20384;-82
2021/04/28 08:26:15;;;;;;;7.82;4.45;;;19.10;88.20;;;;;;5010896;28;20091;-82
2021/04/28 08:28:47;;;;;;;8.85;4.35;;;19.00;88.60;;;;;;5007112;28;20479;-83
2021/04/28 08:31:18;;;;;;;9.02;5.03;;;18.90;88.90;;;;;;5006028;28;20021;-81
2021/04/28 08:33:46;;;;;;;6.97;4.90;;;18.90;89.10;;;;;;5009238;28;20042;-81
2021/04/28 08:36:13;;;;;;;6.70;5.10;;;18.80;89.90;;;;;;5009400;28;20203;-84
2021/04/28 08:38:42;;;;;;;7.38;5.07;;;18.70;89.60;;;;;;5007997;28;20027;-83
2021/04/28 08:41:12;;;;;;;7.45;4.90;;;18.70;89.90;;;;;;5008588;28;20088;-84
2021/04/28 08:43:40;;;;;;;6.38;5.40;;;18.60;90.00;;;;;;5002246;28;20028;-85
2021/04/28 08:46:08;;;;;;;7.22;4.80;;;18.60;90.00;;;;;;5009278;28;20026;-85
2021/04/28 08:48:36;;;;;;;8.45;5.55;;;18.60;90.30;;;;;;5008669;28;20383;-85
2021/04/28 08:51:04;;;;;;;10.23;5.78;;;18.50;90.20;;;;;;5015076;28;20033;-83
2021/04/28 08:53:33;;;;;;;8.23;5.40;;;18.50;90.30;;;;;;5013676;28;20029;-82
2021/04/28 08:56:09;;;;;;;7.65;5.18;;;18.50;90.20;;;;;;5014942;28;20025;-85
2021/04/28 08:58:38;;;;;;;;;;;18.40;90.30;;;;;;5012725;28;20030;-84
2021/04/28 09:01:07;;;;;;;8.38;5.07;;;18.30;90.40;;;;;;5014557;28;19913;-82
2021/04/28 09:03:43;;;;;;;7.22;5.93;;;18.30;90.60;;;;;;5014520;28;20026;-79
2021/04/28 09:06:36;;;;;;;7.40;4.80;;;18.30;90.40;;;;;;5013567;28;20062;-85
2021/04/28 09:09:08;;;;;;;6.35;4.93;;;18.30;90.40;;;;;;5014312;28;20061;-81
2021/04/28 09:11:36;;;;;;;6.82;5.68;;;18.20;90.90;;;;;;5014774;28;20476;-81
2021/04/28 09:14:14;;;;;;;6.93;5.25;;;18.20;90.70;;;;;;5015353;28;20037;-84
2021/04/28 09:16:53;;;;;;;10.13;5.32;;;18.10;90.70;;;;;;5013248;28;20089;-83
2021/04/28 09:19:32;;;;;;;6.68;4.30;;;18.10;90.80;;;;;;5016260;28;20021;-83
2021/04/28 09:22:05;;;;;;;5.82;5.13;;;18.00;90.90;;;;;;5012558;28;20393;-82
2021/04/28 09:24:45;;;;;;;5.80;4.80;;;18.00;91.00;;;;;;5030524;28;20049;-86
2021/04/28 09:27:28;;;;;;;8.70;5.25;;;17.90;91.00;;;;;;5012577;28;20036;-80
2021/04/28 09:29:56;;;;;;;7.07;4.78;;;18.00;91.10;;;;;;5013250;28;20034;-79
2021/04/28 09:32:35;;;;;;;9.00;5.22;;;17.90;91.20;;;;;;5018899;28;20054;-81
2021/04/28 09:35:19;;;;;;;8.73;5.07;;;17.90;91.10;;;;;;5021827;28;20041;-82
2021/04/28 09:38:00;;;;;;;7.90;5.32;;;17.90;91.20;;;;;;5020308;28;20407;-86
2021/04/28 09:40:56;;;;;;;8.13;4.85;;;17.90;91.30;;;;;;5028893;28;20033;-80
2021/04/28 09:43:36;;;;;;;6.28;5.22;;;17.80;91.50;;;;;;5028968;28;20034;-85
2021/04/28 09:46:04;;;;;;;5.93;4.90;;;17.80;91.60;;;;;;5015626;28;20121;-82
2021/04/28 09:48:31;;;;;;;6.32;5.38;;;17.80;91.40;;;;;;5009041;28;20034;-85
2021/04/28 09:51:09;;;;;;;9.18;4.93;;;17.60;91.50;;;;;;5006659;28;20034;-85
2021/04/28 09:53:38;;;;;;;8.40;4.75;;;17.60;91.70;;;;;;5007585;28;20034;-79
2021/04/28 09:56:17;;;;;;;11.85;5.72;;;17.50;91.70;;;;;;5012172;28;20055;-84
2021/04/28 09:58:53;;;;;;;6.82;4.45;;;17.50;91.80;;;;;;5007623;28;20029;-84
2021/04/28 10:01:34;;;;;;;8.60;6.45;;;17.40;91.70;;;;;;5027343;28;20448;-81
2021/04/28 10:04:04;;;;;;;6.18;4.60;;;17.30;91.90;;;;;;5006859;28;20338;-80
2021/04/28 10:06:48;;;;;;;6.82;4.78;;;17.30;91.90;;;;;;5007349;28;20029;-82
2021/04/28 10:09:34;;;;;;;6.80;4.90;;;17.30;92.00;;;;;;5009086;28;20026;-82
2021/04/28 10:12:09;;;;;;;7.43;4.90;;;17.20;92.10;;;;;;5013752;28;20473;-83
2021/04/28 10:14:38;;;;;;;6.32;5.13;;;17.20;92.30;;;;;;5016444;28;20064;-80
2021/04/28 10:17:16;;;;;;;12.02;5.50;;;17.10;92.30;;;;;;5012460;28;20445;-81
2021/04/28 10:19:48;;;;;;;8.02;5.35;;;17.00;92.40;;;;;;5017860;28;20030;-81
2021/04/28 10:22:20;;;;;;;6.80;5.55;;;17.00;92.50;;;;;;5015391;28;20125;-85
2021/04/28 10:24:51;;;;;;;8.88;5.78;;;17.00;92.50;;;;;;5010654;28;20038;-84
2021/04/28 10:27:19;;;;;;;6.05;5.45;;;17.00;92.60;;;;;;5009025;28;20507;-81
2021/04/28 10:29:54;;;;;;;8.77;5.95;;;16.90;92.60;;;;;;5026041;28;20077;-83
2021/04/28 10:32:24;;;;;;;10.02;5.07;;;16.80;92.70;;;;;;5031768;28;20033;-78
2021/04/28 10:35:14;;;;;;;6.75;6.00;;;16.90;92.80;;;;;;5025601;28;20037;-85
2021/04/28 10:37:47;;;;;;;9.32;6.65;;;16.80;92.90;;;;;;5021212;28;20026;-86
2021/04/28 10:40:16;;;;;;;9.38;7.10;;;16.80;93.00;;;;;;5017455;28;20110;-79
2021/04/28 10:42:46;;;;;;;11.07;7.32;;;16.80;93.10;;;;;;5016540;28;20028;-85
2021/04/28 10:45:38;;;;;;;8.45;7.20;;;16.80;93.20;;;;;;5018259;28;20060;-82
2021/04/28 10:48:17;;;;;;;9.25;6.88;;;16.70;93.20;;;;;;5014938;28;20018;-82
2021/04/28 10:50:47;;;;;;;10.73;6.80;;;16.70;93.20;;;;;;5010631;28;20026;-77
2021/04/28 10:53:28;;;;;;;8.82;6.32;;;16.70;93.20;;;;;;5027954;28;20100;-82
2021/04/28 10:55:57;;;;;;;7.53;6.05;;;16.60;93.30;;;;;;5011133;28;20052;-85
2021/04/28 10:58:31;;;;;;;8.20;7.35;;;16.50;93.40;;;;;;5016309;28;20377;-83
2021/04/28 11:01:05;;;;;;;8.50;6.82;;;16.50;93.20;;;;;;5013633;28;20480;-82
2021/04/28 11:03:35;;;;;;;7.88;6.40;;;16.50;93.30;;;;;;5017257;28;20034;-81
2021/04/28 11:06:25;;;;;;;8.27;7.05;;;16.50;93.20;;;;;;5007145;28;20072;-81
2021/04/28 11:09:06;;;;;;;8.15;7.28;;;16.40;93.40;;;;;;5008116;28;20022;-80
2021/04/28 11:11:35;;;;;;;10.50;6.85;;;16.40;93.40;;;;;;5011266;28;20028;-83
2021/04/28 11:14:14;;;;;;;15.60;6.47;;;16.30;93.50;;;;;;5012447;28;20045;-83
2021/04/28 11:16:45;;;;;;;10.20;6.70;;;16.30;93.50;;;;;;5024194;28;20044;-85
2021/04/28 11:19:39;;;;;;;9.68;6.50;;;16.20;93.40;;;;;;5013609;28;20145;-84
2021/04/28 11:22:24;;;;;;;7.88;6.13;;;16.10;93.50;;;;;;5010633;28;20029;-81
2021/04/28 11:25:10;;;;;;;9.07;7.07;;;16.20;93.60;;;;;;5013108;28;20081;-82
2021/04/28 11:27:43;;;;;;;;;;;16.20;93.70;;;;;;5014229;28;20026;-84
2021/04/28 11:30:24;;;;;;;7.22;6.20;;;16.10;93.40;;;;;;5013275;28;20020;-82
2021/04/28 11:33:07;;;;;;;8.23;6.50;;;16.10;93.70;;;;;;5014538;28;20036;-79
2021/04/28 11:35:36;;;;;;;10.93;6.60;;;16.10;93.50;;;;;;5014249;28;20088;-83
2021/04/28 11:38:12;;;;;;;8.38;6.50;;;16.00;93.80;;;;;;5012497;28;20030;-84
2021/04/28 11:40:55;;;;;;;6.10;5.50;;;16.00;93.70;;;;;;5009633;28;20033;-84
2021/04/28 11:43:25;;;;;;;9.68;5.75;;;16.00;93.70;;;;;;5009495;28;20481;-83
2021/04/28 11:45:54;;;;;;;17.40;8.02;;;15.90;93.60;;;;;;5009820;28;20026;-82
2021/04/28 11:48:27;;;;;;;8.75;6.40;;;15.80;93.70;;;;;;5012412;28;20488;-84
2021/04/28 11:51:01;;;;;;;7.45;5.88;;;15.80;93.90;;;;;;5013962;28;20109;-81
2021/04/28 11:53:29;;;;;;;8.00;6.68;;;15.70;93.60;;;;;;5010100;28;20038;-84
2021/04/28 11:56:03;;;;;;;15.90;6.05;;;15.70;93.80;;;;;;5009957;28;20490;-83
2021/04/28 11:58:32;;;;;;;13.60;6.63;;;15.60;93.90;;;;;;5011474;28;20042;-82
2021/04/28 12:01:12;;;;;;;6.38;5.78;;;15.60;94.10;;;;;;5012165;28;20496;-83
2021/04/28 12:03:59;;;;;;;7.57;5.50;;;15.60;94.10;;;;;;5010587;28;20103;-80
2021/04/28 12:06:44;;;;;;;8.18;5.63;;;15.50;93.80;;;;;;5010812;28;20106;-81
2021/04/28 12:09:32;;;;;;;6.65;5.53;;;15.50;93.90;;;;;;5008655;28;20034;-81
2021/04/28 12:12:16;;;;;;;16.83;6.18;;;15.50;94.10;;;;;;5011330;28;20026;-81
2021/04/28 12:14:46;;;;;;;9.82;6.05;;;15.50;93.90;;;;;;5009870;28;20057;-81
2021/04/28 12:17:16;;;;;;;9.98;6.13;;;15.40;94.20;;;;;;5011540;28;20070;-81
2021/04/28 12:19:46;;;;;;;9.50;6.18;;;15.30;94.20;;;;;;5010474;28;20052;-79
2021/04/28 12:22:14;;;;;;;8.23;5.60;;;15.30;94.20;;;;;;5003078;28;20049;-81
2021/04/28 12:24:49;;;;;;;9.52;5.55;;;15.30;94.00;;;;;;5013401;28;20026;-81
2021/04/28 12:27:32;;;;;;;10.40;6.55;;;15.20;94.20;;;;;;5009465;28;20029;-81
2021/04/28 12:30:03;;;;;;;9.93;7.40;;;15.30;94.20;;;;;;5008529;28;20433;-80
2021/04/28 12:32:39;;;;;;;9.43;7.18;;;15.30;94.30;;;;;;5011096;28;20469;-81
2021/04/28 12:35:21;;;;;;;;;;;15.20;94.30;;;;;;5005729;28;20042;-81
2021/04/28 12:38:13;;;;;;;14.65;7.13;;;15.10;94.30;;;;;;5010895;28;19909;-81
2021/04/28 12:40:48;;;;;;;8.50;7.25;;;15.10;94.20;;;;;;5007507;28;20030;-81
2021/04/28 12:43:21;;;;;;;9.43;6.78;;;15.10;94.20;;;;;;5012934;28;20052;-82
2021/04/28 12:45:49;;;;;;;8.10;5.88;;;15.00;94.50;;;;;;5006757;28;20049;-82
2021/04/28 12:48:21;;;;;;;10.43;7.30;;;15.00;94.40;;;;;;5006094;28;20369;-79
2021/04/28 12:50:51;;;;;;;11.43;7.57;;;15.00;94.30;;;;;;5007321;28;20030;-79
2021/04/28 12:53:23;;;;;;;7.88;7.07;;;14.90;94.30;;;;;;5010104;28;20578;-80
2021/04/28 12:55:57;;;;;;;12.20;7.78;;;14.90;94.50;;;;;;5008881;28;20068;-78
2021/04/28 12:58:25;;;;;;;10.50;8.45;;;14.90;94.60;;;;;;5008610;28;20516;-79
2021/04/28 13:00:57;;;;;;;9.48;7.97;;;14.90;94.50;;;;;;5009565;28;20041;-79
2021/04/28 13:03:24;;;;;;;8.38;7.28;;;14.80;94.20;;;;;;5012093;28;20045;-80